ADDS METAR Data INFO
IDs: Format: Raw Decoded Include TAF

Data at: 2354 UTC 23 Feb 2018

KMMK 232253Z AUTO 16005KT 8SM -RA OVC009 02/02 A3033 RMK AO2 CIG 004V012 PRESFR SLP270 P0004 T00220017
KMMK 232221Z AUTO 16004KT 4SM -RA BR OVC009 02/02 A3035 RMK AO2 P0004 T00220017
KMMK 232207Z AUTO 16003KT 2SM RA BR OVC009 02/02 A3036 RMK AO2 CIG 006V012 P0003 T00220017
KMMK 232153Z AUTO 15004KT 6SM -RA BR OVC011 02/01 A3037 RMK AO2 PRESFR SLP287 P0002 T00220011
KMMK 232053Z AUTO 15004KT 5SM -RA BR OVC013 02/01 A3042 RMK AO2 RAB1956 SLP301 P0003 60003 T00220011 56043
KMMK 232021Z AUTO 16005KT 9SM -RA OVC014 02/01 A3044 RMK AO2 RAB1956 P0001 T00220006
KMMK 231953Z AUTO 16006KT 10SM OVC016 03/00 A3046 RMK AO2 RAB01E19 SLP316 P0000 T00280000
KMMK 231853Z AUTO 14007KT 10SM OVC018 03/00 A3048 RMK AO2 RAE29 PRESFR SLP324 P0000 T00280000
KMMK 231753Z AUTO 13007KT 9SM -RA OVC020 03/00 A3054 RMK AO2 RAE28B46UPB10E13 SLP345 P0001 60001 T00280000 10033 21006 58029
KMMK 231653Z AUTO 14005KT 10SM -RA OVC023 03/00 A3057 RMK AO2 RAB07 SLP354 P0000 T00330000
KMMK 231553Z AUTO 17006KT 10SM OVC023 03/M02 A3062 RMK AO2 SLP369 T00281017
KMMK 231453Z AUTO 07004KT 10SM OVC018 02/M01 A3063 RMK AO2 SLP374 T00221011 58015
KMMK 231404Z AUTO 09006KT 10SM BKN015 OVC090 02/M01 A3065 RMK AO2 T00171011
KMMK 231353Z AUTO VRB04KT 10SM BKN013 OVC090 02/M01 A3066 RMK AO2 SLP383 T00171011
KMMK 231321Z AUTO 05004KT 10SM BKN013 01/M02 A3067 RMK AO2 T00111017
KMMK 231253Z AUTO 00000KT 10SM FEW009 FEW016 01/M01 A3068 RMK AO2 SLP391 T00061011
KMMK 231236Z AUTO 00000KT 10SM FEW009 00/M02 A3068 RMK AO2 T00001017
KMMK 231153Z AUTO 00000KT 10SM CLR M01/M02 A3068 RMK AO2 SLP389 70014 T10061017 10006 21006 51003
KMMK 231053Z AUTO 04003KT 10SM FEW050 M01/M02 A3067 RMK AO2 SLP387 T10061022
KMMK 231019Z AUTO 00000KT 10SM SCT017 M01/M02 A3068 RMK AO2 T10061017
KMMK 230953Z AUTO 36003KT 10SM OVC017 00/M01 A3068 RMK AO2 SLP392 T00001011
KMMK 230907Z AUTO 01005KT 10SM BKN017 BKN050 00/M01 A3067 RMK AO2 T00001011
KMMK 230853Z AUTO 03005KT 10SM FEW009 FEW019 SCT050 00/M02 A3067 RMK AO2 SLP387 T00001017 56011
KMMK 230844Z AUTO 02005KT 10SM SCT009 BKN050 00/M02 A3067 RMK AO2 T00001017
KMMK 230821Z AUTO 01006KT 10SM OVC009 00/M02 A3067 RMK AO2 T00001017
KMMK 230753Z AUTO 03005KT 10SM BKN012 OVC048 01/M01 A3067 RMK AO2 SLP387 T00061011
KMMK 230709Z AUTO 01004KT 10SM SCT009 OVC014 01/M01 A3068 RMK AO2 T00061011
KMMK 230653Z AUTO 36004KT 10SM BKN009 OVC014 01/M01 A3068 RMK AO2 SLP391 T00061011
KMMK 230553Z AUTO 01005KT 10SM OVC008 01/M01 A3070 RMK AO2 SLP397 T00061006 10006 20006 51008
KMMK 230453Z AUTO 02004KT 10SM OVC009 01/M01 A3069 RMK AO2 CIG 008V012 SLP393 T00061006 401220006
KMMK 230445Z AUTO 01005KT 10SM OVC009 01/M01 A3069 RMK AO2 T00061006
KMMK 230353Z AUTO 01006KT 10SM OVC011 01/M01 A3070 RMK AO2 CIG 009V013 SLP397 T00061006
KMMK 230253Z AUTO 01003KT 10SM BKN012 01/M01 A3068 RMK AO2 SLP390 T00061006 53002
KMMK 230218Z AUTO 02003KT 10SM BKN014 01/M01 A3067 RMK AO2 T00061011
KMMK 230153Z AUTO 00000KT 10SM FEW008 BKN075 01/M01 A3066 RMK AO2 SLP383 T00061006
KMMK 230053Z AUTO 02003KT 10SM FEW008 OVC075 01/M01 A3064 RMK AO2 SLP376 T00061006
KMMK 222353Z AUTO 01005KT 10SM SCT009 BKN035 OVC085 01/M01 A3067 RMK AO2 SNE08 SLP386 P0000 60014 T00061006 10050 20006 50021
KMMK 222348Z AUTO 03006KT 10SM SCT009 BKN035 OVC085 01/M01 A3067 RMK AO2 SNE08 P0000
KMMK 222334Z AUTO 02004KT 10SM BKN010 OVC090 01/M01 A3067 RMK AO2 SNE08 CIG 008V012 P0000 T00061006
KMMK 222303Z AUTO 03004KT 6SM -SN BR BKN009 OVC036 01/M01 A3068 RMK AO2 CIG 007V012 P0000 T00061006
KMMK 222253Z AUTO 35003KT 4SM -SN BR BKN010 OVC036 01/M01 A3068 RMK AO2 RAE2154UPB22E23B34E43SNB2154E22B23E34B43 SLP390 P0003 T00061006
KMMK 222228Z AUTO 36006KT 4SM -SN BR BKN010 BKN050 OVC080 01/M01 A3068 RMK AO2 RAE2154UPB22E23SNB2154E22B23 P0003 T00061006
KMMK 222216Z AUTO 01007KT 3SM -SN BR SCT012 BKN048 OVC085 01/M01 A3066 RMK AO2 RAE2154SNB2154 P0002 T00061006
KMMK 222201Z AUTO 01008KT 1 3/4SM -SN BR FEW012 BKN048 OVC080 01/M01 A3066 RMK AO2 RAE2154SNB2154 P0001 T00061006
KMMK 222153Z AUTO 02009KT 3SM -RA BR FEW034 BKN046 OVC070 01/M01 A3065 RMK AO2 SLP381 P0004 T00061011
KMMK 222053Z AUTO 01007KT 5SM -RA BR OVC070 01/M01 A3061 RMK AO2 SLP366 P0006 60007 T00111006 53006
KMMK 221953Z AUTO 36005KT 7SM -RA OVC055 03/M01 A3060 RMK AO2 SLP362 P0001 T00281011
KMMK 221853Z AUTO 36011KT 10SM -RA OVC055 04/M03 A3059 RMK AO2 RAB39 SLP359 P0000 T00441033
KMMK 221753Z AUTO 02008KT 10SM OVC060 05/M04 A3059 RMK AO2 SLP360 60000 T00501039 10072 20050 58009
KMMK 221653Z AUTO 02008KT 10SM OVC070 06/M05 A3062 RMK AO2 RAE17 SLP369 P0000 T00561050
KMMK 221553Z AUTO 02008KT 10SM -RA OVC075 06/M04 A3064 RMK AO2 RAB02 SLP377 P0000 T00611044
KMMK 221453Z AUTO 35008KT 10SM OVC075 06/M03 A3062 RMK AO2 RAB13E31 SLP368 P0000 60000 T00611033 53015
KMMK 221353Z AUTO 01007G17KT 10SM OVC080 07/M04 A3059 RMK AO2 SLP360 T00671039
KMMK 221253Z AUTO 01007KT 10SM OVC075 07/M03 A3060 RMK AO2 SLP362 T00671033